createdAt,value
2019-05-19T00:06:47.914Z,42.5
2019-05-19T00:16:48.034Z,42.5
2019-05-19T00:26:47.256Z,42.4
2019-05-19T00:36:46.519Z,42.4
2019-05-19T00:46:45.682Z,42.4
2019-05-19T00:56:44.904Z,42.3
2019-05-19T01:06:44.120Z,42.2
2019-05-19T01:16:43.335Z,42.2
2019-05-19T01:26:42.597Z,42.1
2019-05-19T01:36:41.764Z,42.1
2019-05-19T01:46:40.980Z,42.1
2019-05-19T01:56:40.196Z,42.1
2019-05-19T02:06:39.411Z,42.1
2019-05-19T02:16:38.618Z,42.1
2019-05-19T02:26:37.836Z,42.1
2019-05-19T02:36:37.051Z,42.1
2019-05-19T02:46:36.270Z,42
2019-05-19T02:56:35.479Z,42
2019-05-19T03:06:34.701Z,42
2019-05-19T03:16:33.914Z,42
2019-05-19T03:26:33.123Z,41.9
2019-05-19T03:36:32.338Z,41.9
2019-05-19T03:46:31.554Z,41.9
2019-05-19T03:56:30.823Z,41.9
2019-05-19T04:06:29.989Z,41.9
2019-05-19T04:16:29.205Z,41.9
2019-05-19T04:26:28.413Z,41.9
2019-05-19T04:36:27.633Z,41.9
2019-05-19T04:46:26.844Z,41.9
2019-05-19T04:56:26.059Z,41.9
2019-05-19T05:06:25.274Z,41.9
2019-05-19T05:16:24.482Z,41.3
2019-05-19T05:26:23.704Z,37.9
2019-05-19T05:36:22.910Z,33.3
2019-05-19T05:46:22.135Z,33.6
2019-05-19T05:56:21.350Z,33.7
2019-05-19T06:06:20.561Z,33.9
2019-05-19T06:16:19.775Z,34.3
2019-05-19T06:26:19.004Z,34.9
2019-05-19T06:36:18.254Z,35.7
2019-05-19T06:46:17.420Z,36.7
2019-05-19T06:56:16.640Z,37.6
2019-05-19T07:06:15.851Z,38.4
2019-05-19T07:16:15.070Z,39.4
2019-05-19T07:26:14.288Z,39.9
2019-05-19T07:36:13.509Z,40.7
2019-05-19T07:46:12.719Z,41.7
2019-05-19T07:56:11.936Z,42.6
2019-05-19T08:06:11.165Z,43.2
2019-05-19T08:16:10.374Z,43.8
2019-05-19T08:26:09.597Z,44.3
2019-05-19T08:36:08.809Z,44.8
2019-05-19T08:46:08.031Z,45.3
2019-05-19T08:56:07.245Z,45.6
2019-05-19T09:06:06.460Z,45.9
2019-05-19T09:16:05.670Z,46.3
2019-05-19T09:26:04.889Z,46.8
2019-05-19T09:36:04.109Z,47.3
2019-05-19T09:46:03.322Z,47.6
2019-05-19T09:56:02.541Z,48
2019-05-19T10:06:01.751Z,48.4
2019-05-19T10:16:00.975Z,48.9
2019-05-19T10:26:00.192Z,49.4
2019-05-19T10:35:59.414Z,49.9
2019-05-19T10:45:58.622Z,50.4
2019-05-19T10:55:57.847Z,50.8
2019-05-19T11:05:57.060Z,51.1
2019-05-19T11:15:56.275Z,51.4
2019-05-19T11:25:55.493Z,51.8
2019-05-19T11:35:54.717Z,52.1
2019-05-19T11:45:53.935Z,50.3
2019-05-19T11:56:05.633Z,48.6
2019-05-19T12:05:52.374Z,48.6
2019-05-19T12:15:51.643Z,48.9
2019-05-19T12:25:50.806Z,49.2
2019-05-19T12:35:50.019Z,49.4
2019-05-19T12:45:49.267Z,49.7
2019-05-19T12:55:48.469Z,50
2019-05-19T13:05:47.679Z,50.3
2019-05-19T13:15:46.898Z,50.4
2019-05-19T13:25:46.106Z,50.4
2019-05-19T13:35:45.330Z,50.6
2019-05-19T13:45:44.555Z,50.4
2019-05-19T13:55:43.767Z,49.8
2019-05-19T14:05:42.988Z,49.2
2019-05-19T14:15:42.204Z,49.1
2019-05-19T14:25:41.433Z,48.9
2019-05-19T14:35:40.634Z,47.3
2019-05-19T14:45:39.863Z,43.5
2019-05-19T14:55:39.090Z,42.2
2019-05-19T15:05:38.318Z,41.3
2019-05-19T15:15:37.524Z,41.2
2019-05-19T15:25:36.742Z,41.2
2019-05-19T15:35:35.958Z,41.3
2019-05-19T15:45:35.169Z,40.6
2019-05-19T15:55:34.390Z,40.3
2019-05-19T16:05:33.613Z,40.2
2019-05-19T16:15:32.826Z,39.1
2019-05-19T16:25:32.056Z,37.9
2019-05-19T16:35:31.273Z,36.8
2019-05-19T16:45:30.492Z,35
2019-05-19T16:55:29.718Z,34.4
2019-05-19T17:05:28.951Z,32.3
2019-05-19T17:15:28.173Z,31.4
2019-05-19T17:25:27.401Z,31
2019-05-19T17:35:26.631Z,31.3
2019-05-19T17:45:25.853Z,30.6
2019-05-19T17:55:25.077Z,29.8
2019-05-19T18:05:24.302Z,29.4
2019-05-19T18:15:23.519Z,29.6
2019-05-19T18:25:22.814Z,29.5
2019-05-19T18:35:21.964Z,29.1
2019-05-19T18:45:21.243Z,28.8
2019-05-19T18:55:20.400Z,28.5
2019-05-19T19:05:19.637Z,26.6
2019-05-19T19:15:18.848Z,25.9
2019-05-19T19:25:18.063Z,26
2019-05-19T19:35:17.282Z,23.3
2019-05-19T19:45:16.518Z,22.9
2019-05-19T19:55:15.726Z,22.8
2019-05-19T20:05:14.945Z,22.4
2019-05-19T20:15:14.169Z,19.5
2019-05-19T20:25:13.395Z,18.8
2019-05-19T20:35:12.611Z,18.8
2019-05-19T20:45:11.832Z,18.8
2019-05-19T20:55:11.057Z,18.8
2019-05-19T21:07:01.510Z,18.8
2019-05-19T21:17:00.730Z,18.8
2019-05-19T21:26:59.946Z,18.6
2019-05-19T21:36:59.178Z,18.8
2019-05-19T21:46:58.450Z,18.8
2019-05-19T21:56:57.615Z,18.8
2019-05-19T22:06:56.844Z,18.8
2019-05-19T22:16:56.159Z,18.8
2019-05-19T22:26:55.467Z,18.8
2019-05-19T22:36:54.761Z,18.8
2019-05-19T22:46:54.068Z,18.8
2019-05-19T22:56:53.379Z,18.9
2019-05-19T23:06:52.640Z,18.9
2019-05-19T23:16:51.854Z,18.9
2019-05-19T23:26:51.115Z,18.9
2019-05-19T23:36:50.345Z,18.9
2019-05-19T23:46:49.555Z,18.9
2019-05-19T23:56:48.858Z,18.9
